Hunt, Texas
Current Conditions -  °F | °C
As of 9:55 PM on Wednesday 17 Dec 2014 (Local Time) from KERV Reporting Station
Haze Haze  
Wind Chill: 11°   Ceiling: 300
Heat Index: 11°   Visibility: 1mi
Dew Point: 10°   Wind: 0mph
Humidity: 96%   Direction: NA
Pressure: 30.11"   Gusts: NA
Location:  30.07°N, 99.34°W
Report Text: KERV 180355Z AUTO 00000KT 1SM BR OVC003 11/10 A3011 RMK AO2 T01060100
Loading
Personal Weather Stations






























Interactive Weather Map New forecast layout! Learn more

10-Day Weather Forecast

Advertisements
Track Severe Weather on mobile